createdAt,value
2023-05-07T00:00:26.889Z,96983.53
2023-05-07T00:01:36.153Z,96983.28
2023-05-07T00:02:59.515Z,96981.13
2023-05-07T00:04:02.714Z,96989.78
2023-05-07T00:05:06.990Z,96991.34
2023-05-07T00:06:11.278Z,96998.09
2023-05-07T00:07:15.047Z,96996.47
2023-05-07T00:08:17.305Z,96991.41
2023-05-07T00:09:20.652Z,96986.56
2023-05-07T00:10:23.284Z,96992.50
2023-05-07T00:11:37.317Z,96987.94
2023-05-07T00:12:40.737Z,96988.47
2023-05-07T00:13:44.022Z,96989.84
2023-05-07T00:14:46.603Z,96988.22
2023-05-07T00:15:49.979Z,96983.41
2023-05-07T00:16:52.440Z,96990.13
2023-05-07T00:17:56.587Z,96984.50
2023-05-07T00:18:59.226Z,96988.00
2023-05-07T00:20:02.530Z,96981.03
2023-05-07T00:21:05.418Z,96980.78
2023-05-07T00:22:11.437Z,96980.78
2023-05-07T00:23:14.252Z,96978.63
2023-05-07T00:24:18.089Z,96979.69
2023-05-07T00:25:20.933Z,96988.00
2023-05-07T00:26:24.562Z,96986.16
2023-05-07T00:27:27.081Z,96985.31
2023-05-07T00:28:30.377Z,96975.66
2023-05-07T00:29:33.167Z,96981.03
2023-05-07T00:30:36.565Z,96986.16
2023-05-07T00:31:38.997Z,96980.22
2023-05-07T00:32:42.422Z,96982.34
2023-05-07T00:33:44.831Z,96982.09
2023-05-07T00:34:48.144Z,96983.72
2023-05-07T00:35:50.486Z,96986.16
2023-05-07T00:36:54.257Z,96985.63
2023-05-07T00:37:58.125Z,96977.00
2023-05-07T00:39:04.490Z,96986.16
2023-05-07T00:40:08.932Z,96981.03
2023-05-07T00:41:12.455Z,96988.31
2023-05-07T00:42:16.149Z,96989.94
2023-05-07T00:43:19.530Z,96985.63
2023-05-07T00:44:22.346Z,96995.59
2023-05-07T00:45:28.236Z,96994.78
2023-05-07T00:46:32.646Z,96989.13
2023-05-07T00:47:36.139Z,96994.25
2023-05-07T00:48:38.560Z,96998.28
2023-05-07T00:49:45.136Z,96996.41
2023-05-07T00:50:48.249Z,96996.94
2023-05-07T00:51:52.684Z,96997.50
2023-05-07T00:52:57.397Z,96995.88
2023-05-07T00:54:02.160Z,96996.44
2023-05-07T00:55:08.970Z,96995.31
2023-05-07T00:56:12.321Z,96989.41
2023-05-07T00:57:16.871Z,96995.88
2023-05-07T00:58:19.277Z,96987.53
2023-05-07T00:59:22.585Z,96987.25
2023-05-07T01:00:26.773Z,96983.50
2023-05-07T01:01:31.999Z,96986.72
2023-05-07T01:02:34.562Z,96987.28
2023-05-07T01:03:38.450Z,96984.84
2023-05-07T01:04:41.563Z,96981.63
2023-05-07T01:05:47.527Z,96978.66
2023-05-07T01:06:51.081Z,96980.56
2023-05-07T01:07:57.229Z,96981.91
2023-05-07T01:09:02.324Z,96974.38
2023-05-07T01:10:06.718Z,96978.13
2023-05-07T01:11:10.152Z,96980.56
2023-05-07T01:12:15.266Z,96984.31
2023-05-07T01:13:17.947Z,96975.47
2023-05-07T01:14:22.608Z,96985.94
2023-05-07T01:15:25.315Z,96983.28
2023-05-07T01:16:28.999Z,96981.66
2023-05-07T01:17:34.948Z,96985.69
2023-05-07T01:18:38.350Z,96991.06
2023-05-07T01:19:40.782Z,96990.00
2023-05-07T01:20:45.125Z,96996.41
2023-05-07T01:21:49.355Z,96985.44
2023-05-07T01:22:54.745Z,96983.78
2023-05-07T01:23:58.444Z,96993.44
2023-05-07T01:25:02.867Z,96989.66
2023-05-07T01:26:05.976Z,96989.09
2023-05-07T01:27:09.487Z,96991.81
2023-05-07T01:28:12.264Z,96986.16
2023-05-07T01:29:15.728Z,96993.38
2023-05-07T01:30:19.966Z,96996.88
2023-05-07T01:31:24.388Z,96989.31
2023-05-07T01:32:34.188Z,96989.31
2023-05-07T01:33:40.611Z,96996.28
2023-05-07T01:34:44.504Z,96989.84
2023-05-07T01:35:49.971Z,96994.66
2023-05-07T01:36:53.627Z,96994.94
2023-05-07T01:37:59.303Z,96987.66
2023-05-07T01:39:03.327Z,96989.81
2023-05-07T01:40:08.757Z,96995.19
2023-05-07T01:41:13.018Z,96994.38
2023-05-07T01:42:16.341Z,96993.84
2023-05-07T01:43:19.027Z,96997.06
2023-05-07T01:44:22.874Z,96989.53
2023-05-07T01:45:26.905Z,96989.53
2023-05-07T01:46:31.032Z,96991.97
2023-05-07T01:47:34.864Z,96991.69
2023-05-07T01:48:39.479Z,96993.84
2023-05-07T01:49:43.144Z,96986.34
2023-05-07T01:50:46.856Z,96989.81
2023-05-07T01:51:49.809Z,96989.81
2023-05-07T01:52:53.700Z,96990.63
2023-05-07T01:53:57.786Z,96994.13
2023-05-07T01:55:01.147Z,96991.44
2023-05-07T01:56:03.814Z,96993.06
2023-05-07T01:57:07.316Z,96985.56
2023-05-07T01:58:09.727Z,96990.91
2023-05-07T01:59:15.098Z,96986.66
2023-05-07T02:00:18.632Z,96986.41
2023-05-07T02:01:22.505Z,97000.88
2023-05-07T02:02:26.550Z,96991.47
2023-05-07T02:03:29.086Z,96990.38
2023-05-07T02:04:32.970Z,96998.97
2023-05-07T02:05:35.608Z,96997.34
2023-05-07T02:06:39.178Z,96989.25
2023-05-07T02:07:41.964Z,96987.38
2023-05-07T02:08:45.429Z,96984.41
2023-05-07T07:23:52.846Z,97026.97
2023-05-07T07:24:55.365Z,97025.56
2023-05-07T07:25:58.852Z,97026.66
2023-05-07T07:27:02.302Z,97025.09
2023-05-07T07:28:05.745Z,97028.78
2023-05-07T07:29:08.088Z,97027.56
2023-05-07T07:30:12.041Z,97032.63
2023-05-07T07:31:15.041Z,97033.59
2023-05-07T07:32:18.460Z,97021.63
2023-05-07T07:33:20.985Z,97026.06
2023-05-07T07:34:24.463Z,97029.34
2023-05-07T07:35:27.082Z,97019.78
2023-05-07T07:36:39.051Z,97026.84
2023-05-07T07:37:50.969Z,97026.16
2023-05-07T07:38:56.017Z,97023.78
2023-05-07T07:39:59.442Z,97029.72
2023-05-07T07:41:01.879Z,97033.94
2023-05-07T07:42:05.390Z,97032.25
2023-05-07T07:43:07.885Z,97030.09
2023-05-07T07:44:15.967Z,97027.84
2023-05-07T07:45:20.113Z,97030.38
2023-05-07T07:46:22.582Z,97027.91
2023-05-07T07:47:26.312Z,97041.53
2023-05-07T07:48:28.864Z,97038.78
2023-05-07T07:49:32.237Z,97028.63
2023-05-07T07:50:44.557Z,97032.94
2023-05-07T07:51:49.188Z,97041.47
2023-05-07T07:52:52.479Z,97034.19
2023-05-07T07:53:59.578Z,97034.56
2023-05-07T07:55:02.299Z,97034.13
2023-05-07T07:56:06.261Z,97029.00
2023-05-07T07:57:08.694Z,97044.66
2023-05-07T07:58:12.040Z,97036.22
2023-05-07T07:59:19.274Z,97042.72
2023-05-07T08:00:22.924Z,97037.31
2023-05-07T08:01:36.549Z,97035.81
2023-05-07T08:02:39.069Z,97044.00
2023-05-07T08:03:42.665Z,97037.47
2023-05-07T08:04:45.633Z,97048.50
2023-05-07T08:05:50.787Z,97045.03
2023-05-07T08:06:55.983Z,97047.00
2023-05-07T08:07:59.658Z,97046.56
2023-05-07T08:09:04.754Z,97041.19
2023-05-07T08:10:08.091Z,97040.47
2023-05-07T08:11:12.057Z,97042.13
2023-05-07T08:12:14.682Z,97042.34
2023-05-07T08:13:18.172Z,97049.22
2023-05-07T08:14:20.709Z,97030.97
2023-05-07T08:15:24.563Z,97037.03
2023-05-07T08:16:27.119Z,97038.66
2023-05-07T08:17:30.791Z,97037.19
2023-05-07T08:18:33.209Z,97041.19
2023-05-07T08:19:36.504Z,97041.69
2023-05-07T08:20:41.180Z,97049.22
2023-05-07T08:21:44.525Z,97040.56
2023-05-07T08:22:47.009Z,97046.94
2023-05-07T08:23:50.586Z,97046.97
2023-05-07T08:24:54.784Z,97044.22
2023-05-07T08:25:58.689Z,97047.78
2023-05-07T08:27:01.191Z,97049.78
2023-05-07T08:28:05.587Z,97052.56
2023-05-07T08:29:08.994Z,97046.78
2023-05-07T08:30:13.602Z,97051.94
2023-05-07T08:31:17.163Z,97042.47
2023-05-07T08:32:19.764Z,97052.34
2023-05-07T08:33:24.683Z,97047.25
2023-05-07T08:34:28.204Z,97054.44
2023-05-07T08:35:31.914Z,97051.38
2023-05-07T08:36:35.568Z,97057.78
2023-05-07T08:37:40.355Z,97049.88
2023-05-07T08:38:46.833Z,97048.66
2023-05-07T08:39:50.455Z,97045.03
2023-05-07T08:40:55.464Z,97050.47
2023-05-07T08:42:03.297Z,97044.84
2023-05-07T08:43:07.680Z,97052.75
2023-05-07T08:44:15.160Z,97055.88
2023-05-07T08:45:20.246Z,97054.34
2023-05-07T08:46:24.660Z,97048.81
2023-05-07T08:47:34.478Z,97049.25
2023-05-07T08:48:40.858Z,97049.22
2023-05-07T08:49:44.418Z,97049.97
2023-05-07T08:50:50.052Z,97047.84
2023-05-07T08:51:54.918Z,97059.28
2023-05-07T08:52:59.359Z,97045.44
2023-05-07T08:54:04.363Z,97047.38
2023-05-07T08:55:10.477Z,97043.84
2023-05-07T08:56:16.312Z,97046.22
2023-05-07T08:57:21.008Z,97042.25
2023-05-07T08:58:26.515Z,97039.91
2023-05-07T08:59:32.730Z,97052.13
2023-05-07T09:00:37.148Z,97053.16
2023-05-07T09:01:43.146Z,97051.97
2023-05-07T09:02:46.250Z,97043.75
2023-05-07T09:03:50.169Z,97052.47
2023-05-07T09:04:54.630Z,97051.00
2023-05-07T09:05:58.037Z,97050.41
2023-05-07T09:07:06.542Z,97051.53
2023-05-07T09:08:17.062Z,97051.41
2023-05-07T09:09:19.823Z,97048.84
2023-05-07T09:10:26.872Z,97047.44
2023-05-07T09:11:32.242Z,97052.97
2023-05-07T09:12:36.357Z,97056.16
2023-05-07T09:13:40.170Z,97056.97
2023-05-07T09:14:42.722Z,97052.25
2023-05-07T09:15:46.407Z,97051.38
2023-05-07T09:16:54.824Z,97048.88
2023-05-07T09:18:02.601Z,97045.56
2023-05-07T09:19:06.076Z,97051.72
2023-05-07T09:20:11.000Z,97050.13
2023-05-07T09:21:17.921Z,97049.72
2023-05-07T09:22:21.404Z,97057.19
2023-05-07T09:23:24.753Z,97050.88
2023-05-07T09:24:29.572Z,97046.91
2023-05-07T09:25:34.577Z,97042.22
2023-05-07T09:26:39.628Z,97045.81
2023-05-07T09:27:44.115Z,97048.25
2023-05-07T09:28:48.807Z,97052.69
2023-05-07T09:29:51.599Z,97055.88
2023-05-07T09:30:54.972Z,97048.81
2023-05-07T09:31:57.437Z,97046.78
2023-05-07T09:33:02.587Z,97061.69
2023-05-07T09:34:06.106Z,97056.03
2023-05-07T09:35:17.804Z,97053.84
2023-05-07T09:36:20.369Z,97049.88
2023-05-07T09:37:24.100Z,97044.72
2023-05-07T09:38:28.268Z,97052.97
2023-05-07T09:39:41.988Z,97043.28
2023-05-07T09:40:44.445Z,97048.19
2023-05-07T09:41:52.430Z,97050.59
2023-05-07T09:42:56.152Z,97045.84
2023-05-07T09:44:01.463Z,97039.66
2023-05-07T09:45:06.665Z,97043.72
2023-05-07T09:46:14.809Z,97041.72
2023-05-07T09:47:21.483Z,97042.44
2023-05-07T09:48:24.505Z,97037.38
2023-05-07T09:49:33.181Z,97043.63
2023-05-07T09:50:39.113Z,97037.31
2023-05-07T09:51:49.128Z,97033.66
2023-05-07T09:52:52.572Z,97038.34
2023-05-07T09:53:55.330Z,97039.13
2023-05-07T09:55:01.872Z,97039.06
2023-05-07T09:56:05.456Z,97038.22
2023-05-07T09:57:13.740Z,97036.81
2023-05-07T09:58:17.566Z,97032.91
2023-05-07T09:59:22.587Z,97036.31
2023-05-07T10:00:27.966Z,97035.88
2023-05-07T10:01:35.266Z,97036.22
2023-05-07T10:02:38.714Z,97034.69
2023-05-07T10:03:44.187Z,97033.91
2023-05-07T10:04:47.557Z,97029.66
2023-05-07T10:05:52.593Z,97026.63
2023-05-07T10:06:57.707Z,97031.72
2023-05-07T10:08:03.959Z,97031.47
2023-05-07T10:09:09.202Z,97023.78
2023-05-07T10:10:12.444Z,97022.25
2023-05-07T10:11:17.418Z,97022.75
2023-05-07T10:12:22.448Z,97021.22
2023-05-07T10:13:26.890Z,97012.84
2023-05-07T10:14:30.964Z,97023.81
2023-05-07T10:15:33.720Z,97018.56
2023-05-07T10:16:38.915Z,97013.78
2023-05-07T10:17:42.512Z,97008.72
2023-05-07T10:18:46.676Z,97020.84
2023-05-07T10:19:50.093Z,97020.56
2023-05-07T10:20:55.166Z,97020.34
2023-05-07T10:22:04.430Z,97017.47
2023-05-07T10:23:08.551Z,97013.88
2023-05-07T10:24:18.409Z,97009.91
2023-05-07T10:25:24.662Z,97008.06
2023-05-07T10:26:31.107Z,97007.59
2023-05-07T10:27:36.147Z,97013.06
2023-05-07T10:28:42.189Z,97012.94
2023-05-07T10:29:55.251Z,97016.34
2023-05-07T10:31:10.266Z,97017.03
2023-05-07T10:32:27.832Z,97014.38
2023-05-07T10:33:33.287Z,97008.78
2023-05-07T10:34:38.801Z,97019.25
2023-05-07T10:35:45.102Z,97009.91
2023-05-07T10:36:49.223Z,97012.53
2023-05-07T10:37:53.262Z,97011.72
2023-05-07T10:38:57.231Z,97011.03
2023-05-07T10:40:00.980Z,97008.78
2023-05-07T10:41:06.688Z,97006.63
2023-05-07T10:42:11.052Z,97013.88
2023-05-07T10:43:15.795Z,97007.44
2023-05-07T10:44:29.689Z,97004.72
2023-05-07T10:45:34.095Z,97017.16
2023-05-07T10:46:36.777Z,97011.06
2023-05-07T10:49:22.814Z,97009.19
2023-05-07T10:50:27.895Z,97006.47
2023-05-07T10:51:32.315Z,97003.56
2023-05-07T10:52:36.818Z,97004.69
2023-05-07T10:53:39.213Z,96999.69
2023-05-07T10:54:43.439Z,97005.78
2023-05-07T10:55:47.686Z,96999.69
2023-05-07T10:56:52.193Z,97003.22
2023-05-07T10:57:55.758Z,96992.66
2023-05-07T10:59:43.071Z,97005.38
2023-05-07T11:00:45.828Z,97000.25
2023-05-07T11:01:57.316Z,96997.53
2023-05-07T11:03:08.282Z,97003.66
2023-05-07T11:04:16.856Z,97002.03
2023-05-07T11:05:22.792Z,97001.09
2023-05-07T11:06:26.706Z,97006.56
2023-05-07T11:07:31.193Z,96997.13
2023-05-07T11:08:55.411Z,97004.41
2023-05-07T11:10:02.163Z,96994.47
2023-05-07T11:11:05.940Z,96995.63
2023-05-07T11:12:08.744Z,96997.53
2023-05-07T11:13:12.680Z,97000.28
2023-05-07T11:14:46.917Z,96997.41
2023-05-07T11:15:50.811Z,96996.78
2023-05-07T11:17:03.910Z,96991.53
2023-05-07T11:18:08.164Z,96990.41
2023-05-07T11:19:12.711Z,97001.03
2023-05-07T11:20:16.599Z,96995.28
2023-05-07T11:21:39.936Z,96996.59
2023-05-07T11:22:42.589Z,96989.09
2023-05-07T11:24:02.282Z,96994.38
2023-05-07T11:25:05.872Z,96982.50
2023-05-07T11:26:11.095Z,96987.78
2023-05-07T11:27:14.990Z,96983.81
2023-05-07T11:28:18.556Z,96988.13
2023-05-07T11:29:24.593Z,96993.25
2023-05-07T11:30:27.529Z,96976.59
2023-05-07T11:31:31.993Z,96975.31
2023-05-07T11:32:35.685Z,96989.09
2023-05-07T11:33:39.691Z,96986.22
2023-05-07T11:34:43.784Z,96980.47
2023-05-07T11:35:47.978Z,96977.25
2023-05-07T11:36:51.467Z,96976.81
2023-05-07T11:38:01.321Z,96987.84
2023-05-07T11:39:05.030Z,96973.91
2023-05-07T11:40:09.194Z,96978.88
2023-05-07T11:41:12.695Z,96973.13
2023-05-07T11:42:28.211Z,96969.28
2023-05-07T11:43:31.067Z,96978.59
2023-05-07T11:44:49.308Z,96972.19
2023-05-07T11:45:52.787Z,96965.94
2023-05-07T11:46:56.216Z,96961.09
2023-05-07T11:47:58.711Z,96973.28
2023-05-07T11:49:03.321Z,96973.09
2023-05-07T11:50:09.334Z,96971.34
2023-05-07T11:51:13.610Z,96962.69
2023-05-07T11:52:16.278Z,96966.38
2023-05-07T11:53:22.214Z,96971.81
2023-05-07T11:54:24.653Z,96970.22
2023-05-07T11:55:28.580Z,96966.38
2023-05-07T11:56:31.926Z,96967.81
2023-05-07T11:57:35.095Z,96967.81
2023-05-07T11:58:38.924Z,96974.06
2023-05-07T11:59:42.504Z,96967.81
2023-05-07T12:00:51.833Z,96975.50
2023-05-07T12:02:00.294Z,96967.97
2023-05-07T12:03:05.605Z,96969.91
2023-05-07T12:04:09.427Z,96969.09
2023-05-07T12:05:12.350Z,96972.13
2023-05-07T12:06:18.057Z,96965.56
2023-05-07T12:07:20.545Z,96975.34
2023-05-07T12:08:24.459Z,96966.38
2023-05-07T12:09:27.595Z,96965.25
2023-05-07T12:10:31.010Z,96969.56
2023-05-07T12:11:33.582Z,96968.75
2023-05-07T12:12:41.621Z,96968.28
2023-05-07T12:13:44.493Z,96972.63
2023-05-07T12:14:48.446Z,96972.78
2023-05-07T12:15:54.667Z,96964.28
2023-05-07T12:16:58.553Z,96969.88
2023-05-07T12:18:01.411Z,96966.06
2023-05-07T12:19:05.105Z,96971.97
2023-05-07T12:20:08.952Z,96972.78
2023-05-07T12:21:13.094Z,96971.97
2023-05-07T12:22:16.997Z,96981.28
2023-05-07T12:23:19.920Z,96973.72
2023-05-07T12:24:23.324Z,96974.88
2023-05-07T12:25:25.864Z,96978.69
2023-05-07T12:26:29.574Z,96970.06
2023-05-07T12:27:32.262Z,96974.38
2023-05-07T12:28:40.853Z,96973.25
2023-05-07T12:29:47.335Z,96968.94
2023-05-07T12:30:52.934Z,96978.22
2023-05-07T12:31:56.814Z,96972.91
2023-05-07T12:33:01.432Z,96972.91
2023-05-07T12:34:05.216Z,96968.94
2023-05-07T12:35:08.397Z,96970.03
2023-05-07T12:36:15.627Z,96969.56
2023-05-07T12:37:18.284Z,96965.56
2023-05-07T12:38:21.670Z,96963.97
2023-05-07T12:39:25.127Z,96963.34
2023-05-07T12:40:37.394Z,96966.69
2023-05-07T12:41:56.312Z,96965.44
2023-05-07T12:43:00.930Z,96960.78
2023-05-07T12:44:06.934Z,96961.91
2023-05-07T12:45:11.141Z,96957.25
2023-05-07T12:46:17.729Z,96958.06
2023-05-07T12:47:22.247Z,96962.06
2023-05-07T12:48:28.134Z,96956.16
2023-05-07T12:49:30.848Z,96949.09
2023-05-07T12:50:35.334Z,96950.88
2023-05-07T12:51:38.897Z,96955.66
2023-05-07T12:52:41.726Z,96942.53
2023-05-07T12:53:46.468Z,96945.78
2023-05-07T12:54:49.519Z,96942.88
2023-05-07T12:55:55.487Z,96938.06
2023-05-07T12:57:06.844Z,96931.34
2023-05-07T12:58:09.476Z,96934.06
2023-05-07T12:59:12.896Z,96936.16
2023-05-07T13:00:16.204Z,96939.34
2023-05-07T13:01:31.137Z,96942.06
2023-05-07T13:02:56.567Z,96933.44
2023-05-07T13:04:03.924Z,96936.63
2023-05-07T13:05:07.435Z,96937.91
2023-05-07T13:06:13.341Z,96937.91
2023-05-07T13:07:15.880Z,96939.19
2023-05-07T13:08:35.365Z,96938.06
2023-05-07T13:09:40.335Z,96938.69
2023-05-07T13:10:43.801Z,96941.09
2023-05-07T13:11:47.167Z,96940.31
2023-05-07T13:12:49.626Z,96936.94
2023-05-07T13:13:53.104Z,96942.38
2023-05-07T13:14:55.615Z,96931.66
2023-05-07T13:15:59.187Z,96937.28
2023-05-07T13:17:01.633Z,96936.47
2023-05-07T13:18:06.529Z,96941.31
2023-05-07T13:19:11.312Z,96942.06
2023-05-07T13:20:14.089Z,96933.25
2023-05-07T13:21:17.880Z,96932.31
2023-05-07T13:22:20.895Z,96933.13
2023-05-07T13:23:24.484Z,96929.28
2023-05-07T13:24:26.890Z,96930.06
2023-05-07T13:25:30.282Z,96930.88
2023-05-07T13:26:33.345Z,96930.41
2023-05-07T13:27:38.079Z,96926.22
2023-05-07T13:28:41.597Z,96927.66
2023-05-07T13:29:44.004Z,96925.25
2023-05-07T13:30:47.307Z,96922.53
2023-05-07T13:31:50.502Z,96918.25
2023-05-07T13:32:57.677Z,96915.97
2023-05-07T13:34:02.412Z,96913.25
2023-05-07T13:35:05.731Z,96912.31
2023-05-07T13:36:09.497Z,96920.28
2023-05-07T13:37:12.699Z,96928.59
2023-05-07T13:38:17.255Z,96930.22
2023-05-07T13:39:20.120Z,96930.53
2023-05-07T13:40:23.894Z,96926.69
2023-05-07T13:41:26.300Z,96934.84
2023-05-07T13:42:30.282Z,96928.91
2023-05-07T13:43:34.683Z,96928.16
2023-05-07T13:44:37.073Z,96932.44
2023-05-07T13:45:40.442Z,96932.44
2023-05-07T13:46:43.452Z,96924.78
2023-05-07T13:47:48.504Z,96927.66
2023-05-07T13:48:52.207Z,96925.41
2023-05-07T13:49:57.134Z,96923.28
2023-05-07T13:51:00.807Z,96922.63
2023-05-07T13:52:03.411Z,96918.16
2023-05-07T13:53:07.015Z,96916.53
2023-05-07T13:54:09.437Z,96918.81
2023-05-07T13:55:13.585Z,96918.34
2023-05-07T13:56:16.302Z,96928.41
2023-05-07T13:57:19.723Z,96931.44
2023-05-07T13:58:22.880Z,96918.19
2023-05-07T13:59:26.223Z,96926.00
2023-05-07T14:00:30.590Z,96923.94
2023-05-07T14:01:36.040Z,96921.22
2023-05-07T14:02:39.610Z,96917.84
2023-05-07T14:03:43.319Z,96921.88
2023-05-07T14:04:46.968Z,96913.34
2023-05-07T14:05:51.742Z,96913.81
2023-05-07T14:06:54.148Z,96910.47
2023-05-07T14:07:59.615Z,96908.22
2023-05-07T14:09:03.413Z,96913.66
2023-05-07T14:10:07.880Z,96902.44
2023-05-07T14:11:10.448Z,96910.47
2023-05-07T14:12:13.865Z,96908.88
2023-05-07T14:13:16.549Z,96906.47
2023-05-07T14:14:20.234Z,96915.63
2023-05-07T14:15:22.836Z,96911.47
2023-05-07T14:16:26.323Z,96913.69
2023-05-07T14:17:28.834Z,96911.78
2023-05-07T14:18:32.361Z,96914.19
2023-05-07T14:19:36.632Z,96914.19
2023-05-07T14:20:39.075Z,96916.91
2023-05-07T14:21:43.739Z,96915.31
2023-05-07T14:22:47.354Z,96916.91
2023-05-07T14:23:49.844Z,96911.78
2023-05-07T14:25:05.918Z,96914.66
2023-05-07T14:26:09.526Z,96915.47
2023-05-07T14:27:13.177Z,96915.63
2023-05-07T14:28:15.709Z,96911.91
2023-05-07T14:29:23.798Z,96907.09
2023-05-07T14:30:27.725Z,96913.81
2023-05-07T14:31:31.300Z,96910.44
2023-05-07T14:32:34.969Z,96904.34
2023-05-07T14:33:39.138Z,96904.19
2023-05-07T14:34:45.025Z,96913.66
2023-05-07T14:35:49.927Z,96908.50
2023-05-07T14:36:54.723Z,96901.94
2023-05-07T14:37:58.157Z,96904.31
2023-05-07T14:39:00.616Z,96903.66
2023-05-07T14:40:04.899Z,96900.63
2023-05-07T14:41:07.587Z,96899.84
2023-05-07T14:42:11.096Z,96899.84
2023-05-07T14:43:13.858Z,96901.44
2023-05-07T14:44:17.359Z,96908.50
2023-05-07T14:45:19.807Z,96907.69
2023-05-07T14:46:25.169Z,96898.84
2023-05-07T14:47:28.667Z,96905.44
2023-05-07T14:48:31.214Z,96905.13
2023-05-07T14:49:34.633Z,96896.94
2023-05-07T14:50:37.285Z,96909.41
2023-05-07T14:51:41.025Z,96900.78
2023-05-07T14:52:44.900Z,96895.34
2023-05-07T14:53:48.490Z,96893.72
2023-05-07T14:54:50.868Z,96904.47
2023-05-07T14:55:55.042Z,96896.31
2023-05-07T14:56:58.434Z,96895.84
2023-05-07T14:58:01.092Z,96894.22
2023-05-07T14:59:05.051Z,96897.31
2023-05-07T15:00:10.772Z,96905.78
2023-05-07T15:01:15.655Z,96903.88
2023-05-07T15:02:21.202Z,96896.50
2023-05-07T15:03:24.330Z,96897.31
2023-05-07T15:04:27.927Z,96898.88
2023-05-07T15:05:30.393Z,96896.50
2023-05-07T15:06:34.579Z,96895.38
2023-05-07T15:07:37.080Z,96904.00
2023-05-07T15:08:41.786Z,96902.09
2023-05-07T15:09:45.474Z,96896.66
2023-05-07T15:10:48.496Z,96895.03
2023-05-07T15:11:51.881Z,96896.31
2023-05-07T15:12:54.458Z,96895.66
2023-05-07T15:13:58.315Z,96896.59
2023-05-07T15:15:01.049Z,96894.81
2023-05-07T15:16:04.486Z,96894.16
2023-05-07T15:17:07.556Z,96897.50
2023-05-07T15:18:10.952Z,96896.97
2023-05-07T15:19:18.622Z,96895.06
2023-05-07T15:20:25.772Z,96896.97
2023-05-07T15:21:41.077Z,96891.53
2023-05-07T15:23:16.453Z,96892.84
2023-05-07T15:24:25.563Z,96889.66
2023-05-07T15:25:32.787Z,96890.94
2023-05-07T15:26:37.768Z,96889.16
2023-05-07T15:27:51.466Z,96882.91
2023-05-07T15:28:57.542Z,96888.19
2023-05-07T15:30:00.171Z,96896.38
2023-05-07T15:31:03.729Z,96892.03
2023-05-07T15:32:08.004Z,96897.50
2023-05-07T15:33:10.772Z,96891.59
2023-05-07T15:34:16.892Z,96893.19
2023-05-07T15:35:22.822Z,96895.44
2023-05-07T15:36:27.188Z,96898.16
2023-05-07T15:37:29.612Z,96893.84
2023-05-07T15:38:33.017Z,96897.34
2023-05-07T15:39:36.996Z,96896.56
2023-05-07T15:40:42.920Z,96893.34
2023-05-07T15:41:45.557Z,96902.34
2023-05-07T15:42:49.140Z,96898.34
2023-05-07T15:43:53.769Z,96904.13
2023-05-07T15:44:57.419Z,96900.13
2023-05-07T15:46:01.200Z,96907.84
2023-05-07T15:47:04.863Z,96901.44
2023-05-07T15:48:07.501Z,96902.25
2023-05-07T15:49:11.643Z,96908.34
2023-05-07T15:50:14.197Z,96907.69
2023-05-07T15:51:17.819Z,96917.94
2023-05-07T15:52:21.831Z,96903.72
2023-05-07T15:53:25.226Z,96904.38
2023-05-07T15:54:27.704Z,96908.88
2023-05-07T15:55:32.675Z,96903.41
2023-05-07T15:56:35.157Z,96905.66
2023-05-07T15:57:40.239Z,96907.59
2023-05-07T15:58:42.941Z,96909.53
2023-05-07T15:59:46.509Z,96910.31
2023-05-07T16:00:49.786Z,96904.06
2023-05-07T16:01:54.052Z,96906.78
2023-05-07T16:02:56.904Z,96902.94
2023-05-07T16:04:01.466Z,96905.66
2023-05-07T16:05:08.971Z,96905.66
2023-05-07T16:06:13.889Z,96908.38
2023-05-07T16:07:16.339Z,96905.03
2023-05-07T16:08:19.838Z,96894.75
2023-05-07T16:09:22.508Z,96907.91
2023-05-07T16:10:27.006Z,96902.31
2023-05-07T16:11:33.933Z,96903.63
2023-05-07T16:12:37.528Z,96898.03
2023-05-07T16:13:40.293Z,96898.66
2023-05-07T16:14:43.968Z,96903.16
2023-05-07T16:15:46.654Z,96904.31
2023-05-07T16:16:50.481Z,96903.81
2023-05-07T16:17:58.298Z,96902.53
2023-05-07T16:19:02.321Z,96901.28
2023-05-07T16:20:06.559Z,96900.78
2023-05-07T16:21:13.075Z,96906.22
2023-05-07T16:22:16.286Z,96896.78
2023-05-07T16:23:19.785Z,96903.03
2023-05-07T16:24:23.271Z,96895.66
2023-05-07T16:25:28.233Z,96894.41
2023-05-07T16:26:32.143Z,96896.63
2023-05-07T16:27:35.622Z,96891.19
2023-05-07T16:28:38.243Z,96894.56
2023-05-07T16:29:41.910Z,96893.28
2023-05-07T16:30:45.590Z,96891.66
2023-05-07T16:31:48.129Z,96888.75
2023-05-07T16:32:52.079Z,96886.69
2023-05-07T16:33:54.678Z,96891.66
2023-05-07T16:34:58.148Z,96889.59
2023-05-07T16:36:00.566Z,96889.09
2023-05-07T16:37:05.804Z,96889.75
2023-05-07T16:38:11.922Z,96896.63
2023-05-07T16:39:15.409Z,96889.91
2023-05-07T16:40:18.002Z,96893.28
2023-05-07T16:41:23.160Z,96884.97
2023-05-07T16:42:27.114Z,96894.56
2023-05-07T16:43:30.611Z,96884.63
2023-05-07T16:44:33.525Z,96887.19
2023-05-07T16:45:36.983Z,96888.63
2023-05-07T16:46:39.775Z,96894.72
2023-05-07T16:47:43.246Z,96882.06
2023-05-07T16:48:45.882Z,96881.09
2023-05-07T16:49:50.534Z,96877.91
2023-05-07T16:50:52.996Z,96884.00
2023-05-07T16:51:56.843Z,96891.97
2023-05-07T16:52:59.514Z,96882.19
2023-05-07T16:54:03.355Z,96879.31
2023-05-07T16:55:06.865Z,96879.47
2023-05-07T16:56:10.535Z,96880.91
2023-05-07T16:57:13.417Z,96884.56
2023-05-07T16:58:18.289Z,96880.59
2023-05-07T16:59:21.635Z,96879.78
2023-05-07T17:00:27.847Z,96889.03
2023-05-07T17:01:39.126Z,96880.25
2023-05-07T17:02:47.275Z,96879.59
2023-05-07T17:03:50.944Z,96877.69
2023-05-07T17:04:53.565Z,96867.75
2023-05-07T17:05:57.714Z,96870.00
2023-05-07T17:07:00.169Z,96875.56
2023-05-07T17:08:03.544Z,96877.81
2023-05-07T17:09:07.041Z,96881.78
2023-05-07T17:10:10.207Z,96881.78
2023-05-07T17:11:13.670Z,96873.78
2023-05-07T17:12:16.886Z,96881.94
2023-05-07T17:13:21.734Z,96879.38
2023-05-07T17:14:24.251Z,96885.09
2023-05-07T17:15:27.910Z,96883.81
2023-05-07T17:16:30.351Z,96884.63
2023-05-07T17:17:34.015Z,96887.44
2023-05-07T17:18:37.420Z,96878.47
2023-05-07T17:19:40.191Z,96881.81
2023-05-07T17:20:43.963Z,96886.47
2023-05-07T17:21:46.516Z,96887.88
2023-05-07T17:22:49.994Z,96877.66
2023-05-07T17:23:52.794Z,96883.25
2023-05-07T17:24:56.254Z,96882.72
2023-05-07T17:25:58.797Z,96894.22
2023-05-07T17:27:02.229Z,96894.53
2023-05-07T17:28:04.885Z,96897.06
2023-05-07T17:29:09.666Z,96894.66
2023-05-07T17:30:13.629Z,96892.28
2023-05-07T17:31:18.577Z,96896.91
2023-05-07T17:32:21.199Z,96893.88
2023-05-07T17:33:25.035Z,96903.13
2023-05-07T17:34:29.459Z,96899.31
2023-05-07T17:35:32.818Z,96897.69
2023-05-07T17:36:36.492Z,96901.53
2023-05-07T17:37:40.194Z,96904.75
2023-05-07T17:38:42.616Z,96895.28
2023-05-07T17:39:46.387Z,96909.19
2023-05-07T17:40:49.028Z,96892.72
2023-05-07T17:41:52.469Z,96901.97
2023-05-07T17:42:56.205Z,96901.16
2023-05-07T17:44:00.802Z,96908.81
2023-05-07T17:45:05.829Z,96911.53
2023-05-07T17:46:08.990Z,96911.81
2023-05-07T17:47:14.290Z,96919.50
2023-05-07T17:48:17.548Z,96908.44
2023-05-07T17:49:21.424Z,96911.50
2023-05-07T17:50:23.857Z,96911.16
2023-05-07T17:51:36.084Z,96909.88
2023-05-07T17:52:46.171Z,96915.94
2023-05-07T17:53:48.770Z,96915.13
2023-05-07T17:54:52.241Z,96922.16
2023-05-07T17:55:54.925Z,96919.75